Time;durP1;ratioP1;P1;durP2;ratioP2;P2;SDS_P1;SDS_P2;PMS_P1;PMS_P2;Temp;Humidity;BMP_temperature;BMP_pressure;BME280_temperature;BME280_humidity;BME280_pressure;Samples;Min_cycle;Max_cycle;Signal;HPM_P1;HPM_P2
2023/07/18 00:01:46;;;;;;;10.57;9.65;;;;;;;;;;5044914;28;20044;-74
2023/07/18 00:04:11;;;;;;;11.27;10.27;;;;;;;;;;5044791;28;20056;-73
2023/07/18 00:06:40;;;;;;;11.82;10.32;;;;;;;;;;5045781;28;20555;-74
2023/07/18 00:09:06;;;;;;;11.13;10.10;;;;;;;;;;5043962;28;20129;-74
2023/07/18 00:11:31;;;;;;;12.55;10.82;;;;;;;;;;5045279;28;20125;-74
2023/07/18 00:13:57;;;;;;;10.82;10.02;;;;;;;;;;5045351;28;20039;-74
2023/07/18 00:16:22;;;;;;;12.30;10.20;;;;;;;;;;5043195;28;20465;-74
2023/07/18 00:18:50;;;;;;;11.30;10.18;;;;;;;;;;5043920;28;20060;-73
2023/07/18 00:21:16;;;;;;;11.02;10.07;;;;;;;;;;5045206;28;20051;-74
2023/07/18 00:23:41;;;;;;;11.90;10.80;;;;;;;;;;5045433;28;20123;-73
2023/07/18 00:26:08;;;;;;;12.68;10.77;;;;;;;;;;5043787;28;20528;-74
2023/07/18 00:28:34;;;;;;;11.52;10.43;;;;;;;;;;5043664;28;20562;-74
2023/07/18 00:31:02;;;;;;;11.38;10.25;;;;;;;;;;5044024;28;20040;-73
2023/07/18 00:33:28;;;;;;;10.93;9.98;;;;;;;;;;5042462;28;20578;-74
2023/07/18 00:35:54;;;;;;;14.80;12.13;;;;;;;;;;5045416;28;20056;-73
2023/07/18 00:38:20;;;;;;;11.38;10.27;;;;;;;;;;5043706;28;20032;-74
2023/07/18 00:41:05;;;;;;;12.25;11.00;;;;;;;;;;5041634;28;20871;-73
2023/07/18 00:43:32;;;;;;;10.88;10.05;;;;;;;;;;5043970;28;20029;-73
2023/07/18 00:45:58;;;;;;;12.00;10.75;;;;;;;;;;5045069;28;20040;-74
2023/07/18 00:48:25;;;;;;;11.32;10.52;;;;;;;;;;5045068;28;20037;-73
2023/07/18 00:50:50;;;;;;;11.20;9.95;;;;;;;;;;5042780;28;20033;-74
2023/07/18 00:53:16;;;;;;;10.93;10.00;;;;;;;;;;5043983;28;20570;-74
2023/07/18 00:55:42;;;;;;;10.75;9.95;;;;;;;;;;5044166;28;20408;-73
2023/07/18 00:58:08;;;;;;;10.68;9.88;;;;;;;;;;5043733;28;20033;-74
2023/07/18 01:00:33;;;;;;;11.15;10.05;;;;;;;;;;5042361;28;20399;-73
2023/07/18 01:02:59;;;;;;;11.60;10.65;;;;;;;;;;5043896;28;20049;-73
2023/07/18 01:05:25;;;;;;;11.35;10.18;;;;;;;;;;5043857;28;20161;-73
2023/07/18 01:07:50;;;;;;;11.13;10.20;;;;;;;;;;5043885;28;20400;-74
2023/07/18 01:10:24;;;;;;;10.90;10.00;;;;;;;;;;5043307;28;20032;-74
2023/07/18 01:12:58;;;;;;;11.27;10.25;;;;;;;;;;5043780;28;20032;-73
2023/07/18 01:15:25;;;;;;;11.18;10.18;;;;;;;;;;5046637;28;20116;-73
2023/07/18 01:17:51;;;;;;;12.38;10.85;;;;;;;;;;5046631;28;20044;-73
2023/07/18 01:20:21;;;;;;;11.63;10.40;;;;;;;;;;5047332;28;20044;-73
2023/07/18 02:42:06;;;;;;;11.27;10.38;;;;;;;;;;5037302;28;20538;-65
2023/07/18 02:44:32;;;;;;;11.75;10.52;;;;;;;;;;5040527;28;20440;-65
2023/07/18 02:46:57;;;;;;;11.02;10.13;;;;;;;;;;5044591;28;20033;-65
2023/07/18 02:49:23;;;;;;;12.05;10.88;;;;;;;;;;5045547;28;20086;-65
2023/07/18 02:51:48;;;;;;;10.32;9.43;;;;;;;;;;5042938;28;20029;-65
2023/07/18 02:54:14;;;;;;;12.27;10.10;;;;;;;;;;5046891;28;20040;-66
2023/07/18 02:56:40;;;;;;;11.02;10.10;;;;;;;;;;5046556;28;20060;-65
2023/07/18 02:59:06;;;;;;;11.10;10.23;;;;;;;;;;5044613;28;20029;-65
2023/07/18 03:01:31;;;;;;;11.18;10.27;;;;;;;;;;5043395;28;20037;-65
2023/07/18 03:03:59;;;;;;;12.32;10.95;;;;;;;;;;5060397;28;20041;-65
2023/07/18 03:06:24;;;;;;;11.10;10.10;;;;;;;;;;5046213;28;20593;-65
2023/07/18 03:08:50;;;;;;;11.25;10.23;;;;;;;;;;5044703;28;20045;-65
2023/07/18 03:11:18;;;;;;;10.02;9.27;;;;;;;;;;5043914;28;20025;-65
2023/07/18 03:13:44;;;;;;;11.40;10.30;;;;;;;;;;5042566;28;20564;-64
2023/07/18 03:16:09;;;;;;;11.48;10.48;;;;;;;;;;5045199;28;20033;-65
2023/07/18 03:18:36;;;;;;;11.68;10.60;;;;;;;;;;5041309;28;20025;-65
2023/07/18 03:21:02;;;;;;;11.88;10.85;;;;;;;;;;5041833;28;20439;-65
2023/07/18 03:23:27;;;;;;;11.32;10.30;;;;;;;;;;5044163;28;20037;-65
2023/07/18 03:25:53;;;;;;;10.90;9.90;;;;;;;;;;5046788;28;20032;-65
2023/07/18 03:28:19;;;;;;;11.80;10.80;;;;;;;;;;5045177;28;20063;-65
2023/07/18 03:30:45;;;;;;;11.15;10.35;;;;;;;;;;5043146;28;20025;-65
2023/07/18 03:33:12;;;;;;;11.75;10.75;;;;;;;;;;5028528;28;20052;-65
2023/07/18 03:35:39;;;;;;;12.02;11.00;;;;;;;;;;5045993;28;20079;-65
2023/07/18 03:38:05;;;;;;;11.55;10.55;;;;;;;;;;5035325;28;20554;-65
2023/07/18 03:40:30;;;;;;;14.95;11.18;;;;;;;;;;5042514;28;20041;-65
2023/07/18 03:42:56;;;;;;;12.15;10.98;;;;;;;;;;5045735;28;20106;-65
2023/07/18 03:45:21;;;;;;;11.48;10.38;;;;;;;;;;5044550;28;20068;-65
2023/07/18 03:47:47;;;;;;;11.23;10.23;;;;;;;;;;5043839;28;20530;-65
2023/07/18 03:50:15;;;;;;;11.48;10.38;;;;;;;;;;5042666;28;20033;-66
2023/07/18 03:52:41;;;;;;;11.57;10.57;;;;;;;;;;5042657;28;20033;-66
2023/07/18 03:55:07;;;;;;;11.05;9.93;;;;;;;;;;5042686;28;20075;-66
2023/07/18 03:57:36;;;;;;;11.88;10.68;;;;;;;;;;5042573;28;20043;-66
2023/07/18 04:00:12;;;;;;;12.50;11.27;;;;;;;;;;5044421;28;20040;-66
2023/07/18 04:02:38;;;;;;;16.17;11.57;;;;;;;;;;5039659;28;20029;-65
2023/07/18 04:05:04;;;;;;;11.45;10.55;;;;;;;;;;5042472;28;20041;-65
2023/07/18 04:07:31;;;;;;;12.10;10.93;;;;;;;;;;5045488;28;20072;-65
2023/07/18 04:09:57;;;;;;;11.70;10.70;;;;;;;;;;5045067;28;20484;-66
2023/07/18 04:12:23;;;;;;;12.13;10.93;;;;;;;;;;5043661;28;20506;-66
2023/07/18 04:14:48;;;;;;;11.68;10.48;;;;;;;;;;5041823;28;20566;-66
2023/07/18 04:17:14;;;;;;;11.98;10.98;;;;;;;;;;5041465;28;20093;-66
2023/07/18 04:19:40;;;;;;;14.10;10.98;;;;;;;;;;5042744;28;20098;-66
2023/07/18 04:22:05;;;;;;;12.30;10.85;;;;;;;;;;5045613;28;20037;-66
2023/07/18 04:24:31;;;;;;;11.85;10.85;;;;;;;;;;5041097;28;20147;-66
2023/07/18 04:26:57;;;;;;;12.15;11.00;;;;;;;;;;5043928;28;20036;-66
2023/07/18 04:29:24;;;;;;;12.13;11.00;;;;;;;;;;5045183;28;20420;-65
2023/07/18 04:31:50;;;;;;;11.27;10.30;;;;;;;;;;5041422;28;20636;-65
2023/07/18 04:34:15;;;;;;;11.07;10.00;;;;;;;;;;5042912;28;20577;-65
2023/07/18 04:36:42;;;;;;;11.43;10.27;;;;;;;;;;5041701;28;20041;-65
2023/07/18 04:39:08;;;;;;;12.02;10.73;;;;;;;;;;5044853;28;20041;-65
2023/07/18 04:41:34;;;;;;;11.82;10.90;;;;;;;;;;5041845;28;20494;-66
2023/07/18 04:44:00;;;;;;;12.27;10.93;;;;;;;;;;5041345;28;20061;-66
2023/07/18 04:46:26;;;;;;;12.20;11.10;;;;;;;;;;5041487;28;20044;-66
2023/07/18 04:48:51;;;;;;;13.10;11.90;;;;;;;;;;5042957;28;20052;-66
2023/07/18 04:51:17;;;;;;;12.02;11.00;;;;;;;;;;5042674;28;20396;-66
2023/07/18 04:53:43;;;;;;;13.00;11.73;;;;;;;;;;5048256;28;20045;-66
2023/07/18 04:56:08;;;;;;;12.90;11.80;;;;;;;;;;5046858;28;20515;-66
2023/07/18 04:58:34;;;;;;;12.95;11.95;;;;;;;;;;5048821;28;20132;-66
2023/07/18 05:01:02;;;;;;;12.05;11.15;;;;;;;;;;5048376;28;20065;-66
2023/07/18 05:03:28;;;;;;;13.48;12.27;;;;;;;;;;5046891;28;20112;-66
2023/07/18 05:05:54;;;;;;;12.95;11.68;;;;;;;;;;5048811;28;20115;-66
2023/07/18 05:08:20;;;;;;;12.77;11.43;;;;;;;;;;5048307;28;20086;-66
2023/07/18 05:10:45;;;;;;;13.30;12.07;;;;;;;;;;5046050;28;20029;-75
2023/07/18 05:13:11;;;;;;;12.60;11.40;;;;;;;;;;5048818;28;20039;-75
2023/07/18 05:15:37;;;;;;;11.40;10.50;;;;;;;;;;5048655;28;20033;-75
2023/07/18 05:18:03;;;;;;;12.18;11.15;;;;;;;;;;5048617;28;20025;-75
2023/07/18 05:20:30;;;;;;;11.40;10.32;;;;;;;;;;5046973;28;20044;-75
2023/07/18 05:22:55;;;;;;;12.10;11.10;;;;;;;;;;5048301;28;20067;-75
2023/07/18 05:25:21;;;;;;;11.82;10.63;;;;;;;;;;5048356;28;20044;-75
2023/07/18 05:27:47;;;;;;;12.57;10.43;;;;;;;;;;5045287;28;20461;-75
2023/07/18 05:30:17;;;;;;;12.13;11.13;;;;;;;;;;5046909;28;20531;-75
2023/07/18 05:32:44;;;;;;;12.00;10.95;;;;;;;;;;5042785;28;20057;-75
2023/07/18 05:35:13;;;;;;;12.40;10.63;;;;;;;;;;5048166;28;20223;-75
2023/07/18 05:37:40;;;;;;;;;;;;;;;;;;5044505;28;20048;-75
2023/07/18 05:40:08;;;;;;;12.05;11.05;;;;;;;;;;5045357;28;19917;-74
2023/07/18 05:42:35;;;;;;;19.05;11.38;;;;;;;;;;5045411;28;20041;-75
2023/07/18 05:45:01;;;;;;;12.05;11.02;;;;;;;;;;5047475;28;20072;-75
2023/07/18 05:47:26;;;;;;;11.93;10.82;;;;;;;;;;5048164;28;20079;-75
2023/07/18 05:49:52;;;;;;;11.73;10.82;;;;;;;;;;5046496;28;20045;-74
2023/07/18 05:52:17;;;;;;;12.15;10.82;;;;;;;;;;5047990;28;20476;-75
2023/07/18 05:54:45;;;;;;;11.20;10.40;;;;;;;;;;5047919;28;20500;-75
2023/07/18 05:57:10;;;;;;;12.13;11.10;;;;;;;;;;5045345;28;20401;-75
2023/07/18 05:59:36;;;;;;;11.45;10.55;;;;;;;;;;5047411;28;20033;-75
2023/07/18 06:02:02;;;;;;;11.93;10.85;;;;;;;;;;5046455;28;20570;-75
2023/07/18 06:04:28;;;;;;;12.20;10.95;;;;;;;;;;5046092;28;20037;-75
2023/07/18 06:06:54;;;;;;;12.13;11.05;;;;;;;;;;5044470;28;20041;-75
2023/07/18 06:09:19;;;;;;;12.27;11.20;;;;;;;;;;5047857;28;20051;-75
2023/07/18 06:11:45;;;;;;;11.82;10.73;;;;;;;;;;5048677;28;20412;-75
2023/07/18 06:14:11;;;;;;;12.65;11.45;;;;;;;;;;5045284;28;20043;-75
2023/07/18 06:16:36;;;;;;;11.75;10.80;;;;;;;;;;5048990;28;20036;-75
2023/07/18 06:19:02;;;;;;;14.13;12.63;;;;;;;;;;5047106;28;20047;-75
2023/07/18 06:21:27;;;;;;;12.77;11.65;;;;;;;;;;5047314;28;20440;-75
2023/07/18 06:23:54;;;;;;;12.40;11.40;;;;;;;;;;5044618;28;20120;-75
2023/07/18 06:26:20;;;;;;;13.32;10.93;;;;;;;;;;5047121;28;20431;-75
2023/07/18 06:28:45;;;;;;;13.13;10.93;;;;;;;;;;5046825;28;20480;-75
2023/07/18 06:31:12;;;;;;;12.27;10.90;;;;;;;;;;5045750;28;20107;-75
2023/07/18 06:33:38;;;;;;;11.25;10.23;;;;;;;;;;5046847;28;20025;-75
2023/07/18 06:36:04;;;;;;;11.77;9.68;;;;;;;;;;5046889;28;20057;-75
2023/07/18 06:38:30;;;;;;;12.32;10.68;;;;;;;;;;5046264;28;20086;-76
2023/07/18 06:40:55;;;;;;;11.88;10.82;;;;;;;;;;5045463;28;20413;-75
2023/07/18 06:43:21;;;;;;;12.10;10.98;;;;;;;;;;5047024;28;20071;-75
2023/07/18 06:45:47;;;;;;;11.52;10.05;;;;;;;;;;5042520;28;20040;-75
2023/07/18 06:48:13;;;;;;;10.88;10.07;;;;;;;;;;5043622;28;20703;-75
2023/07/18 06:50:45;;;;;;;10.88;9.82;;;;;;;;;;5046799;28;20444;-75
2023/07/18 06:53:10;;;;;;;10.70;9.68;;;;;;;;;;5047085;28;20475;-75
2023/07/18 06:55:36;;;;;;;10.48;9.45;;;;;;;;;;5046931;28;20037;-75
2023/07/18 06:58:01;;;;;;;10.25;9.32;;;;;;;;;;5044863;28;20492;-75
2023/07/18 07:00:27;;;;;;;11.18;10.02;;;;;;;;;;5046415;28;20095;-75
2023/07/18 07:02:54;;;;;;;9.90;9.02;;;;;;;;;;5046711;28;20437;-75
2023/07/18 07:05:20;;;;;;;10.32;9.43;;;;;;;;;;5046403;28;20071;-75
2023/07/18 07:07:47;;;;;;;10.68;9.77;;;;;;;;;;5043578;28;20060;-75
2023/07/18 07:10:12;;;;;;;10.73;9.43;;;;;;;;;;5046127;28;20033;-75
2023/07/18 07:12:38;;;;;;;10.32;9.10;;;;;;;;;;5046100;28;20044;-75
2023/07/18 07:15:04;;;;;;;9.73;8.75;;;;;;;;;;5043768;28;20073;-75
2023/07/18 07:17:31;;;;;;;9.70;8.77;;;;;;;;;;5046231;28;20039;-75
2023/07/18 07:19:57;;;;;;;9.00;8.13;;;;;;;;;;5045810;28;20416;-75
2023/07/18 07:22:22;;;;;;;9.43;8.52;;;;;;;;;;5044237;28;20024;-75
2023/07/18 07:24:48;;;;;;;9.27;8.45;;;;;;;;;;5046403;28;20029;-75
2023/07/18 07:27:13;;;;;;;9.77;8.85;;;;;;;;;;5045200;28;20407;-75
2023/07/18 07:29:40;;;;;;;10.05;8.63;;;;;;;;;;5047261;28;20086;-75
2023/07/18 07:32:06;;;;;;;9.15;8.45;;;;;;;;;;5042950;28;20577;-75
2023/07/18 07:34:32;;;;;;;11.10;8.10;;;;;;;;;;5044687;28;20052;-75
2023/07/18 07:36:57;;;;;;;9.30;8.50;;;;;;;;;;5046203;28;20404;-75
2023/07/18 07:39:23;;;;;;;10.18;9.00;;;;;;;;;;5043373;28;20040;-75
2023/07/18 07:41:49;;;;;;;9.45;8.50;;;;;;;;;;5045452;28;20029;-75
2023/07/18 07:44:14;;;;;;;9.25;8.45;;;;;;;;;;5046252;28;20094;-75
2023/07/18 07:46:40;;;;;;;9.15;8.35;;;;;;;;;;5045682;28;20028;-75
2023/07/18 07:49:06;;;;;;;8.73;8.07;;;;;;;;;;5043803;28;20361;-75
2023/07/18 07:51:33;;;;;;;8.95;8.15;;;;;;;;;;5045807;28;20025;-76
2023/07/18 07:53:59;;;;;;;8.90;8.10;;;;;;;;;;5045799;28;20044;-75
2023/07/18 07:56:24;;;;;;;13.15;8.20;;;;;;;;;;5045912;28;20397;-76
2023/07/18 07:58:50;;;;;;;9.88;8.88;;;;;;;;;;5043789;28;20120;-75
2023/07/18 08:01:16;;;;;;;9.48;8.68;;;;;;;;;;5045716;28;20044;-75
2023/07/18 08:03:42;;;;;;;9.10;8.25;;;;;;;;;;5045584;28;20033;-75
2023/07/18 08:06:07;;;;;;;9.15;8.32;;;;;;;;;;5044593;28;20032;-76
2023/07/18 08:08:33;;;;;;;10.23;8.77;;;;;;;;;;5044066;28;20029;-75
2023/07/18 08:10:59;;;;;;;9.15;8.35;;;;;;;;;;5045152;28;20112;-75
2023/07/18 08:13:25;;;;;;;10.18;9.15;;;;;;;;;;5045184;28;20578;-75
2023/07/18 08:15:51;;;;;;;8.75;7.95;;;;;;;;;;5042221;28;20397;-75
2023/07/18 08:18:16;;;;;;;9.50;8.57;;;;;;;;;;5044843;28;20037;-75
2023/07/18 08:20:42;;;;;;;8.80;8.10;;;;;;;;;;5043623;28;20033;-75
2023/07/18 08:23:08;;;;;;;8.20;7.60;;;;;;;;;;5040149;28;20052;-75
2023/07/18 08:25:33;;;;;;;9.50;8.52;;;;;;;;;;5044846;28;20160;-75
2023/07/18 08:27:59;;;;;;;10.18;8.50;;;;;;;;;;5045148;28;20577;-76
2023/07/18 08:30:25;;;;;;;9.00;8.27;;;;;;;;;;5045268;28;20033;-75
2023/07/18 08:32:51;;;;;;;9.65;8.80;;;;;;;;;;5024759;28;20075;-75
2023/07/18 08:35:16;;;;;;;9.32;8.52;;;;;;;;;;5045063;28;20041;-75
2023/07/18 08:37:42;;;;;;;10.77;8.30;;;;;;;;;;5045479;28;20411;-75
2023/07/18 08:40:09;;;;;;;9.13;8.43;;;;;;;;;;5045192;28;20064;-75
2023/07/18 08:42:36;;;;;;;8.75;8.13;;;;;;;;;;5042079;28;20036;-76
2023/07/18 08:45:03;;;;;;;8.82;8.02;;;;;;;;;;5044736;28;20116;-75
2023/07/18 08:47:29;;;;;;;11.35;8.65;;;;;;;;;;5044726;28;20492;-75
2023/07/18 08:49:55;;;;;;;8.93;8.13;;;;;;;;;;5037501;28;20172;-75
2023/07/18 08:52:21;;;;;;;8.48;7.78;;;;;;;;;;5045133;28;20449;-76
2023/07/18 08:54:47;;;;;;;8.40;7.80;;;;;;;;;;5045113;28;20051;-75
2023/07/18 08:57:13;;;;;;;8.10;7.30;;;;;;;;;;5043677;28;20098;-75
2023/07/18 08:59:39;;;;;;;10.55;8.30;;;;;;;;;;5044549;28;20079;-76
2023/07/18 09:02:05;;;;;;;8.52;7.50;;;;;;;;;;5044537;28;20045;-76
2023/07/18 09:04:31;;;;;;;8.60;7.88;;;;;;;;;;5043019;28;20029;-75
2023/07/18 09:06:59;;;;;;;8.35;7.75;;;;;;;;;;5045015;28;20403;-75
2023/07/18 09:09:25;;;;;;;8.63;7.55;;;;;;;;;;5044693;28;20477;-75
2023/07/18 09:11:57;;;;;;;8.30;7.50;;;;;;;;;;5045180;28;20544;-75
2023/07/18 09:14:28;;;;;;;7.43;6.82;;;;;;;;;;5043087;28;20033;-75
2023/07/18 09:16:56;;;;;;;8.85;7.85;;;;;;;;;;5045040;28;20039;-76
2023/07/18 09:19:41;;;;;;;7.90;7.07;;;;;;;;;;5044665;28;20029;-75
2023/07/18 09:22:15;;;;;;;7.85;7.13;;;;;;;;;;5044799;28;20033;-76
2023/07/18 09:24:42;;;;;;;8.80;8.10;;;;;;;;;;5040900;28;20039;-76
2023/07/18 09:27:09;;;;;;;8.15;7.40;;;;;;;;;;5044725;28;20036;-75
2023/07/18 09:29:35;;;;;;;9.13;7.25;;;;;;;;;;5044053;28;20033;-75
2023/07/18 09:32:01;;;;;;;7.72;7.07;;;;;;;;;;5042489;28;20235;-74
2023/07/18 09:34:27;;;;;;;9.35;7.60;;;;;;;;;;5043616;28;20032;-75
2023/07/18 09:37:03;;;;;;;8.88;8.05;;;;;;;;;;5048550;28;20032;-75
2023/07/18 09:39:29;;;;;;;9.05;8.20;;;;;;;;;;5047366;28;20032;-75
2023/07/18 09:41:56;;;;;;;9.15;8.27;;;;;;;;;;5047014;28;20442;-75
2023/07/18 09:44:26;;;;;;;9.32;8.52;;;;;;;;;;5048224;28;20037;-75
2023/07/18 09:46:52;;;;;;;8.50;7.78;;;;;;;;;;5048544;28;20087;-75
2023/07/18 09:49:19;;;;;;;8.35;7.63;;;;;;;;;;5046920;28;20035;-75
2023/07/18 09:51:52;;;;;;;8.23;7.43;;;;;;;;;;5045169;28;20047;-75
2023/07/18 09:54:20;;;;;;;8.48;7.72;;;;;;;;;;5047785;28;20101;-76
2023/07/18 09:56:46;;;;;;;7.72;7.13;;;;;;;;;;5044204;28;20040;-75
2023/07/18 09:59:13;;;;;;;8.32;7.57;;;;;;;;;;5042634;28;20427;-76
2023/07/18 10:01:38;;;;;;;9.05;8.40;;;;;;;;;;5044250;28;20295;-75
2023/07/18 10:04:04;;;;;;;9.70;8.73;;;;;;;;;;5044321;28;20492;-77
2023/07/18 10:06:32;;;;;;;8.88;8.07;;;;;;;;;;5044823;28;20041;-75
2023/07/18 10:08:59;;;;;;;9.00;8.30;;;;;;;;;;5043081;28;20045;-75
2023/07/18 10:11:24;;;;;;;9.57;8.82;;;;;;;;;;5043234;28;20029;-75
2023/07/18 10:14:05;;;;;;;10.27;8.57;;;;;;;;;;5044462;28;20044;-76
2023/07/18 10:16:34;;;;;;;9.68;8.88;;;;;;;;;;5043008;28;20378;-75
2023/07/18 10:19:15;;;;;;;10.48;9.20;;;;;;;;;;5043109;28;20029;-75
2023/07/18 10:21:46;;;;;;;9.85;8.95;;;;;;;;;;5044076;28;20037;-75
2023/07/18 10:24:21;;;;;;;10.07;9.15;;;;;;;;;;5044296;28;20060;-75
2023/07/18 10:26:58;;;;;;;10.80;9.77;;;;;;;;;;5040715;28;20067;-75
2023/07/18 10:29:28;;;;;;;10.68;9.70;;;;;;;;;;5045348;28;20039;-76
2023/07/18 10:31:54;;;;;;;10.45;9.60;;;;;;;;;;5044527;28;20298;-75
2023/07/18 10:34:19;;;;;;;10.07;9.40;;;;;;;;;;5044195;28;20083;-75
2023/07/18 10:36:56;;;;;;;10.50;9.50;;;;;;;;;;5042571;28;20037;-75
2023/07/18 10:39:43;;;;;;;9.93;9.32;;;;;;;;;;5043840;28;20118;-75
2023/07/18 10:42:26;;;;;;;9.88;9.07;;;;;;;;;;5043340;28;20032;-75
2023/07/18 10:44:55;;;;;;;10.00;9.30;;;;;;;;;;5041731;28;20029;-76
2023/07/18 10:47:21;;;;;;;11.02;10.10;;;;;;;;;;5042713;28;20036;-75
2023/07/18 10:49:47;;;;;;;11.43;10.23;;;;;;;;;;5043578;28;20033;-76
2023/07/18 10:52:14;;;;;;;11.32;10.10;;;;;;;;;;5041989;28;20033;-76
2023/07/18 10:54:44;;;;;;;10.18;9.27;;;;;;;;;;5040432;28;20123;-76
2023/07/18 10:57:10;;;;;;;33.22;10.98;;;;;;;;;;5043897;28;20040;-76
2023/07/18 10:59:36;;;;;;;10.13;9.43;;;;;;;;;;5043759;28;20041;-75
2023/07/18 11:02:03;;;;;;;10.50;9.70;;;;;;;;;;5043068;28;20173;-75
2023/07/18 11:04:29;;;;;;;11.43;10.10;;;;;;;;;;5041825;28;20099;-75
2023/07/18 11:06:56;;;;;;;10.18;9.35;;;;;;;;;;5043051;28;20469;-76
2023/07/18 11:09:22;;;;;;;11.02;9.98;;;;;;;;;;5043048;28;20437;-76
2023/07/18 11:11:52;;;;;;;12.32;9.73;;;;;;;;;;5040330;28;20091;-75
2023/07/18 11:14:18;;;;;;;10.43;9.23;;;;;;;;;;5043326;28;20033;-76
2023/07/18 11:16:45;;;;;;;9.98;9.27;;;;;;;;;;5043442;28;20047;-75
2023/07/18 11:19:10;;;;;;;11.43;10.32;;;;;;;;;;5039713;28;20447;-75
2023/07/18 11:21:37;;;;;;;11.02;10.02;;;;;;;;;;5039568;28;20045;-75
2023/07/18 11:24:03;;;;;;;10.73;9.85;;;;;;;;;;5043192;28;20463;-75
2023/07/18 11:26:29;;;;;;;10.35;9.45;;;;;;;;;;5043048;28;20481;-75
2023/07/18 11:28:57;;;;;;;10.30;9.40;;;;;;;;;;5040962;28;20044;-75
2023/07/18 11:31:28;;;;;;;10.55;9.65;;;;;;;;;;5042832;28;20024;-76
2023/07/18 11:33:55;;;;;;;11.32;10.35;;;;;;;;;;5042115;28;20295;-76
2023/07/18 11:36:22;;;;;;;11.32;10.32;;;;;;;;;;5040094;28;20076;-76
2023/07/18 11:38:50;;;;;;;11.68;10.65;;;;;;;;;;5042710;28;20040;-76
2023/07/18 11:41:35;;;;;;;11.27;10.27;;;;;;;;;;5042835;28;20028;-75
2023/07/18 11:44:05;;;;;;;11.07;10.07;;;;;;;;;;5043129;28;20515;-76
2023/07/18 11:46:38;;;;;;;11.00;10.07;;;;;;;;;;5039387;28;20041;-76
2023/07/18 11:49:05;;;;;;;11.15;10.05;;;;;;;;;;5041411;28;20481;-76
2023/07/18 11:51:31;;;;;;;11.40;10.40;;;;;;;;;;5042421;28;20126;-75
2023/07/18 11:53:59;;;;;;;11.63;10.63;;;;;;;;;;5031082;28;20056;-75
2023/07/18 11:56:24;;;;;;;11.27;10.38;;;;;;;;;;5041914;28;20536;-75
2023/07/18 11:58:50;;;;;;;11.63;10.68;;;;;;;;;;5041916;28;20037;-76
2023/07/18 12:01:15;;;;;;;11.50;10.55;;;;;;;;;;5043824;28;20041;-76
2023/07/18 12:03:41;;;;;;;13.10;10.40;;;;;;;;;;5045443;28;20040;-76
2023/07/18 12:06:06;;;;;;;11.32;10.52;;;;;;;;;;5045985;28;20041;-76
2023/07/18 12:08:32;;;;;;;11.55;10.55;;;;;;;;;;5047031;28;20131;-76
2023/07/18 12:10:57;;;;;;;11.32;10.43;;;;;;;;;;5043520;28;20033;-76
2023/07/18 12:13:23;;;;;;;11.75;10.63;;;;;;;;;;5045111;28;20489;-76
2023/07/18 12:15:49;;;;;;;11.52;10.50;;;;;;;;;;5045031;28;20021;-76
2023/07/18 12:18:14;;;;;;;10.98;10.10;;;;;;;;;;5042653;28;20028;-76
2023/07/18 12:20:40;;;;;;;12.85;10.68;;;;;;;;;;5043816;28;20044;-76
2023/07/18 12:23:05;;;;;;;11.68;10.57;;;;;;;;;;5036994;28;20040;-76
2023/07/18 12:25:34;;;;;;;10.57;9.88;;;;;;;;;;5042952;28;20040;-76
2023/07/18 12:28:00;;;;;;;11.00;10.20;;;;;;;;;;5043431;28;20044;-76
2023/07/18 12:30:30;;;;;;;10.82;10.02;;;;;;;;;;5044740;28;20044;-76
2023/07/18 12:32:57;;;;;;;11.73;10.82;;;;;;;;;;5041667;28;20037;-76
2023/07/18 12:35:22;;;;;;;11.10;10.27;;;;;;;;;;5045124;28;20044;-76
2023/07/18 12:37:48;;;;;;;11.10;10.10;;;;;;;;;;5045101;28;20098;-76
2023/07/18 12:40:14;;;;;;;10.63;9.88;;;;;;;;;;5043669;28;20025;-76
2023/07/18 12:42:40;;;;;;;13.15;10.75;;;;;;;;;;5039363;28;20500;-76
2023/07/18 12:45:06;;;;;;;11.88;10.68;;;;;;;;;;5044938;28;20264;-76
2023/07/18 12:47:31;;;;;;;10.98;10.18;;;;;;;;;;5044856;28;20558;-76
2023/07/18 12:49:57;;;;;;;11.50;10.50;;;;;;;;;;5041818;28;20033;-76
2023/07/18 12:52:23;;;;;;;11.95;11.05;;;;;;;;;;5044770;28;20032;-76
2023/07/18 12:54:48;;;;;;;11.68;10.57;;;;;;;;;;5044761;28;20056;-77
2023/07/18 12:57:14;;;;;;;12.20;11.00;;;;;;;;;;5044962;28;20226;-76
2023/07/18 12:59:39;;;;;;;11.65;10.65;;;;;;;;;;5043461;28;20029;-76
2023/07/18 13:02:05;;;;;;;11.63;10.63;;;;;;;;;;5044759;28;20091;-76
2023/07/18 13:04:31;;;;;;;12.05;10.85;;;;;;;;;;5044787;28;20424;-76
2023/07/18 13:06:56;;;;;;;11.35;10.45;;;;;;;;;;5044857;28;20044;-76
2023/07/18 13:09:22;;;;;;;11.65;10.60;;;;;;;;;;5042593;28;20048;-76
2023/07/18 13:11:49;;;;;;;11.25;10.25;;;;;;;;;;5048013;28;20028;-76
2023/07/18 13:14:19;;;;;;;10.93;9.82;;;;;;;;;;5048309;28;20040;-76
2023/07/18 13:16:45;;;;;;;11.70;10.70;;;;;;;;;;5049057;28;20037;-76
2023/07/18 13:19:10;;;;;;;11.65;10.45;;;;;;;;;;5046681;28;20041;-76
2023/07/18 13:21:36;;;;;;;10.80;9.90;;;;;;;;;;5048002;28;20040;-76
2023/07/18 13:24:01;;;;;;;10.38;9.57;;;;;;;;;;5048499;28;20440;-77
2023/07/18 13:26:27;;;;;;;12.02;10.48;;;;;;;;;;5048288;28;20033;-76
2023/07/18 13:28:53;;;;;;;11.65;10.65;;;;;;;;;;5045295;28;20033;-76
2023/07/18 13:31:19;;;;;;;11.60;10.70;;;;;;;;;;5049913;28;20025;-76
2023/07/18 13:33:45;;;;;;;10.63;9.73;;;;;;;;;;5048355;28;20063;-76
2023/07/18 13:36:11;;;;;;;11.40;10.23;;;;;;;;;;5048095;28;20489;-76
2023/07/18 13:38:37;;;;;;;12.05;10.77;;;;;;;;;;5046112;28;20045;-77
2023/07/18 13:41:07;;;;;;;12.02;10.73;;;;;;;;;;5047919;28;20218;-76
2023/07/18 13:43:36;;;;;;;12.10;10.75;;;;;;;;;;5048039;28;20146;-76
2023/07/18 13:46:02;;;;;;;13.13;11.90;;;;;;;;;;5045719;28;20190;-76
2023/07/18 13:48:29;;;;;;;11.23;10.43;;;;;;;;;;5047629;28;20154;-76
2023/07/18 13:50:55;;;;;;;12.23;11.00;;;;;;;;;;5047921;28;20025;-76
2023/07/18 13:53:20;;;;;;;12.45;11.23;;;;;;;;;;5047208;28;20036;-76
2023/07/18 13:55:47;;;;;;;11.38;10.48;;;;;;;;;;5045467;28;20508;-76
2023/07/18 13:58:13;;;;;;;11.07;10.25;;;;;;;;;;5047788;28;20029;-76
2023/07/18 14:00:39;;;;;;;11.60;10.57;;;;;;;;;;5046302;28;20060;-76
2023/07/18 14:03:04;;;;;;;11.55;10.75;;;;;;;;;;5045114;28;20036;-76
2023/07/18 14:05:30;;;;;;;11.18;10.20;;;;;;;;;;5047406;28;20072;-76
2023/07/18 14:07:56;;;;;;;11.75;10.70;;;;;;;;;;5047458;28;20627;-76
2023/07/18 14:10:23;;;;;;;11.18;10.27;;;;;;;;;;5047353;28;20394;-76
2023/07/18 14:12:48;;;;;;;12.05;10.85;;;;;;;;;;5046303;28;20037;-76
2023/07/18 14:15:14;;;;;;;11.45;10.45;;;;;;;;;;5047752;28;20025;-76
2023/07/18 14:17:40;;;;;;;10.75;9.95;;;;;;;;;;5046151;28;20044;-76
2023/07/18 14:20:06;;;;;;;11.40;10.40;;;;;;;;;;5047530;28;20496;-76
2023/07/18 14:22:31;;;;;;;11.18;10.00;;;;;;;;;;5044544;28;20040;-76
2023/07/18 14:24:58;;;;;;;11.88;10.35;;;;;;;;;;5047218;28;20028;-76
2023/07/18 14:27:23;;;;;;;10.70;9.70;;;;;;;;;;5047307;28;20041;-76
2023/07/18 14:29:49;;;;;;;11.80;10.70;;;;;;;;;;5044292;28;20075;-76
2023/07/18 14:32:15;;;;;;;11.32;10.43;;;;;;;;;;5046156;28;20119;-76
2023/07/18 14:34:40;;;;;;;11.52;10.52;;;;;;;;;;5047188;28;20029;-76
2023/07/18 14:37:06;;;;;;;11.35;10.20;;;;;;;;;;5045651;28;20037;-76
2023/07/18 14:39:37;;;;;;;10.85;9.90;;;;;;;;;;5046405;28;20029;-76
2023/07/18 14:42:03;;;;;;;11.50;10.50;;;;;;;;;;5047039;28;20118;-76
2023/07/18 14:44:28;;;;;;;11.48;10.38;;;;;;;;;;5045734;28;20044;-76
2023/07/18 14:46:54;;;;;;;11.18;10.38;;;;;;;;;;5045311;28;20087;-76
2023/07/18 14:49:20;;;;;;;11.93;10.85;;;;;;;;;;5046674;28;20248;-76
2023/07/18 14:51:46;;;;;;;11.60;10.60;;;;;;;;;;5046693;28;20382;-76
2023/07/18 14:54:12;;;;;;;11.70;10.73;;;;;;;;;;5043840;28;20041;-76
2023/07/18 14:56:38;;;;;;;11.30;10.40;;;;;;;;;;5046770;28;20384;-77
2023/07/18 14:59:04;;;;;;;10.77;9.77;;;;;;;;;;5046651;28;20086;-76
2023/07/18 15:01:30;;;;;;;11.57;10.40;;;;;;;;;;5046634;28;20045;-76
2023/07/18 15:03:55;;;;;;;10.40;9.50;;;;;;;;;;5045261;28;20036;-76
2023/07/18 15:06:21;;;;;;;10.75;9.77;;;;;;;;;;5045755;28;20032;-76
2023/07/18 15:08:50;;;;;;;12.38;10.32;;;;;;;;;;5046626;28;20033;-76
2023/07/18 15:11:16;;;;;;;10.90;10.00;;;;;;;;;;5046465;28;20056;-76
2023/07/18 15:13:43;;;;;;;12.27;10.80;;;;;;;;;;5045291;28;20055;-76
2023/07/18 15:16:12;;;;;;;11.63;10.52;;;;;;;;;;5046622;28;20059;-76
2023/07/18 15:18:38;;;;;;;11.30;10.38;;;;;;;;;;5044481;28;20120;-76
2023/07/18 15:21:04;;;;;;;11.88;10.77;;;;;;;;;;5060972;28;20583;-75
2023/07/18 15:23:33;;;;;;;11.27;10.38;;;;;;;;;;5046431;28;20098;-75
2023/07/18 15:25:58;;;;;;;11.18;10.40;;;;;;;;;;5045091;28;20484;-75
2023/07/18 15:28:24;;;;;;;12.00;10.80;;;;;;;;;;5046872;28;20033;-74
2023/07/18 15:30:50;;;;;;;12.10;11.10;;;;;;;;;;5045909;28;20035;-74
2023/07/18 15:33:16;;;;;;;14.15;11.23;;;;;;;;;;5044166;28;20041;-75
2023/07/18 15:35:42;;;;;;;11.65;10.60;;;;;;;;;;5042970;28;20043;-75
2023/07/18 15:38:07;;;;;;;11.55;10.60;;;;;;;;;;5045211;28;20850;-76
2023/07/18 15:40:35;;;;;;;11.80;10.65;;;;;;;;;;5044906;28;20032;-75